sensor_id;sensor_type;location;lat;lon;timestamp;pressure;altitude;pressure_sealevel;temperature
19644;BMP180;9970;-36.854;174.870;2023-08-30T00:01:04;102126.00;;;15.00
19644;BMP180;9970;-36.854;174.870;2023-08-30T00:03:36;102132.00;;;15.00
19644;BMP180;9970;-36.854;174.870;2023-08-30T00:06:10;102131.00;;;15.00
19644;BMP180;9970;-36.854;174.870;2023-08-30T00:08:43;102126.00;;;15.10
19644;BMP180;9970;-36.854;174.870;2023-08-30T00:11:20;102117.00;;;15.10
19644;BMP180;9970;-36.854;174.870;2023-08-30T00:14:02;102112.00;;;15.20
19644;BMP180;9970;-36.854;174.870;2023-08-30T00:16:30;102111.00;;;15.20
19644;BMP180;9970;-36.854;174.870;2023-08-30T00:19:03;102114.00;;;15.20
19644;BMP180;9970;-36.854;174.870;2023-08-30T00:21:36;102112.00;;;15.20
19644;BMP180;9970;-36.854;174.870;2023-08-30T00:24:09;102100.00;;;15.20
19644;BMP180;9970;-36.854;174.870;2023-08-30T00:26:42;102106.00;;;15.20
19644;BMP180;9970;-36.854;174.870;2023-08-30T00:29:15;102111.00;;;15.20
19644;BMP180;9970;-36.854;174.870;2023-08-30T00:31:48;102106.00;;;15.20
19644;BMP180;9970;-36.854;174.870;2023-08-30T00:34:21;102105.00;;;15.10
19644;BMP180;9970;-36.854;174.870;2023-08-30T00:36:54;102094.00;;;15.10
19644;BMP180;9970;-36.854;174.870;2023-08-30T00:39:27;102091.00;;;15.10
19644;BMP180;9970;-36.854;174.870;2023-08-30T00:42:00;102091.00;;;15.20
19644;BMP180;9970;-36.854;174.870;2023-08-30T00:44:35;102092.00;;;15.20
19644;BMP180;9970;-36.854;174.870;2023-08-30T00:47:08;102083.00;;;15.20
19644;BMP180;9970;-36.854;174.870;2023-08-30T00:49:41;102081.00;;;15.20
19644;BMP180;9970;-36.854;174.870;2023-08-30T00:52:14;102064.00;;;15.20
19644;BMP180;9970;-36.854;174.870;2023-08-30T00:54:47;102059.00;;;15.20
19644;BMP180;9970;-36.854;174.870;2023-08-30T00:57:20;102062.00;;;15.20
19644;BMP180;9970;-36.854;174.870;2023-08-30T00:59:54;102059.00;;;15.20
19644;BMP180;9970;-36.854;174.870;2023-08-30T01:02:28;102058.00;;;15.20
19644;BMP180;9970;-36.854;174.870;2023-08-30T01:05:01;102060.00;;;15.30
19644;BMP180;9970;-36.854;174.870;2023-08-30T01:07:35;102066.00;;;15.30
19644;BMP180;9970;-36.854;174.870;2023-08-30T01:10:08;102064.00;;;15.30
19644;BMP180;9970;-36.854;174.870;2023-08-30T01:12:57;102068.00;;;15.30
19644;BMP180;9970;-36.854;174.870;2023-08-30T01:15:23;102077.00;;;15.30
19644;BMP180;9970;-36.854;174.870;2023-08-30T01:17:57;102070.00;;;15.30
19644;BMP180;9970;-36.854;174.870;2023-08-30T01:20:33;102071.00;;;15.30
19644;BMP180;9970;-36.854;174.870;2023-08-30T01:23:17;102070.00;;;15.30
19644;BMP180;9970;-36.854;174.870;2023-08-30T01:25:53;102068.00;;;15.30
19644;BMP180;9970;-36.854;174.870;2023-08-30T01:28:26;102066.00;;;15.30
19644;BMP180;9970;-36.854;174.870;2023-08-30T01:30:59;102060.00;;;15.30
19644;BMP180;9970;-36.854;174.870;2023-08-30T01:33:32;102050.00;;;15.30
19644;BMP180;9970;-36.854;174.870;2023-08-30T01:36:05;102052.00;;;15.30
19644;BMP180;9970;-36.854;174.870;2023-08-30T01:38:40;102061.00;;;15.30
19644;BMP180;9970;-36.854;174.870;2023-08-30T01:41:14;102055.00;;;15.30
19644;BMP180;9970;-36.854;174.870;2023-08-30T01:43:48;102057.00;;;15.30
19644;BMP180;9970;-36.854;174.870;2023-08-30T01:46:24;102050.00;;;15.30
19644;BMP180;9970;-36.854;174.870;2023-08-30T01:49:00;102057.00;;;15.30
19644;BMP180;9970;-36.854;174.870;2023-08-30T01:51:34;102048.00;;;15.30
19644;BMP180;9970;-36.854;174.870;2023-08-30T01:54:08;102049.00;;;15.30
19644;BMP180;9970;-36.854;174.870;2023-08-30T01:56:42;102057.00;;;15.30
19644;BMP180;9970;-36.854;174.870;2023-08-30T01:59:15;102056.00;;;15.30
19644;BMP180;9970;-36.854;174.870;2023-08-30T02:01:48;102074.00;;;15.30
19644;BMP180;9970;-36.854;174.870;2023-08-30T02:04:22;102075.00;;;15.30
19644;BMP180;9970;-36.854;174.870;2023-08-30T02:07:00;102069.00;;;15.30
19644;BMP180;9970;-36.854;174.870;2023-08-30T02:09:47;102066.00;;;15.30
19644;BMP180;9970;-36.854;174.870;2023-08-30T02:12:17;102066.00;;;15.30
19644;BMP180;9970;-36.854;174.870;2023-08-30T02:14:52;102069.00;;;15.30
19644;BMP180;9970;-36.854;174.870;2023-08-30T02:17:25;102076.00;;;15.20
19644;BMP180;9970;-36.854;174.870;2023-08-30T02:19:58;102074.00;;;15.20
19644;BMP180;9970;-36.854;174.870;2023-08-30T02:22:31;102072.00;;;15.20
19644;BMP180;9970;-36.854;174.870;2023-08-30T02:25:05;102066.00;;;15.20
19644;BMP180;9970;-36.854;174.870;2023-08-30T02:27:38;102065.00;;;15.20
19644;BMP180;9970;-36.854;174.870;2023-08-30T02:30:13;102063.00;;;15.20
19644;BMP180;9970;-36.854;174.870;2023-08-30T02:32:46;102060.00;;;15.20
19644;BMP180;9970;-36.854;174.870;2023-08-30T02:35:18;102060.00;;;15.10
19644;BMP180;9970;-36.854;174.870;2023-08-30T02:37:51;102051.00;;;15.10
19644;BMP180;9970;-36.854;174.870;2023-08-30T02:40:25;102056.00;;;15.10
19644;BMP180;9970;-36.854;174.870;2023-08-30T02:42:58;102053.00;;;15.00
19644;BMP180;9970;-36.854;174.870;2023-08-30T02:45:31;102053.00;;;15.00
19644;BMP180;9970;-36.854;174.870;2023-08-30T02:48:04;102043.00;;;15.00
19644;BMP180;9970;-36.854;174.870;2023-08-30T02:50:39;102038.00;;;15.00
19644;BMP180;9970;-36.854;174.870;2023-08-30T02:53:12;102037.00;;;15.00
19644;BMP180;9970;-36.854;174.870;2023-08-30T02:55:46;102052.00;;;15.00
19644;BMP180;9970;-36.854;174.870;2023-08-30T02:58:19;102049.00;;;14.90
19644;BMP180;9970;-36.854;174.870;2023-08-30T03:00:54;102056.00;;;14.90
19644;BMP180;9970;-36.854;174.870;2023-08-30T03:03:27;102061.00;;;14.90
19644;BMP180;9970;-36.854;174.870;2023-08-30T03:06:01;102062.00;;;14.90
19644;BMP180;9970;-36.854;174.870;2023-08-30T03:08:34;102053.00;;;14.90
19644;BMP180;9970;-36.854;174.870;2023-08-30T03:11:14;102061.00;;;14.80
19644;BMP180;9970;-36.854;174.870;2023-08-30T03:13:47;102065.00;;;14.80
19644;BMP180;9970;-36.854;174.870;2023-08-30T03:16:21;102062.00;;;14.70
19644;BMP180;9970;-36.854;174.870;2023-08-30T03:18:55;102069.00;;;14.70
19644;BMP180;9970;-36.854;174.870;2023-08-30T03:21:28;102054.00;;;14.60
19644;BMP180;9970;-36.854;174.870;2023-08-30T03:24:02;102062.00;;;14.50
19644;BMP180;9970;-36.854;174.870;2023-08-30T03:26:35;102055.00;;;14.50
19644;BMP180;9970;-36.854;174.870;2023-08-30T03:29:08;102058.00;;;14.40
19644;BMP180;9970;-36.854;174.870;2023-08-30T03:31:41;102052.00;;;14.40
19644;BMP180;9970;-36.854;174.870;2023-08-30T03:34:14;102048.00;;;14.30
19644;BMP180;9970;-36.854;174.870;2023-08-30T03:36:47;102054.00;;;14.30
19644;BMP180;9970;-36.854;174.870;2023-08-30T03:39:24;102046.00;;;14.30
19644;BMP180;9970;-36.854;174.870;2023-08-30T03:41:57;102039.00;;;14.20
19644;BMP180;9970;-36.854;174.870;2023-08-30T03:44:30;102036.00;;;14.20
19644;BMP180;9970;-36.854;174.870;2023-08-30T03:47:05;102043.00;;;14.20
19644;BMP180;9970;-36.854;174.870;2023-08-30T03:49:37;102045.00;;;14.10
19644;BMP180;9970;-36.854;174.870;2023-08-30T03:52:11;102039.00;;;14.00
19644;BMP180;9970;-36.854;174.870;2023-08-30T03:54:44;102047.00;;;14.00
19644;BMP180;9970;-36.854;174.870;2023-08-30T03:57:16;102038.00;;;13.90
19644;BMP180;9970;-36.854;174.870;2023-08-30T03:59:50;102040.00;;;13.90
19644;BMP180;9970;-36.854;174.870;2023-08-30T04:02:23;102051.00;;;13.90
19644;BMP180;9970;-36.854;174.870;2023-08-30T04:04:56;102050.00;;;14.00
19644;BMP180;9970;-36.854;174.870;2023-08-30T04:07:29;102055.00;;;14.00
19644;BMP180;9970;-36.854;174.870;2023-08-30T04:10:05;102066.00;;;14.00
19644;BMP180;9970;-36.854;174.870;2023-08-30T04:12:37;102064.00;;;13.90
19644;BMP180;9970;-36.854;174.870;2023-08-30T04:15:11;102065.00;;;13.90
19644;BMP180;9970;-36.854;174.870;2023-08-30T04:17:44;102070.00;;;14.00
19644;BMP180;9970;-36.854;174.870;2023-08-30T04:20:17;102069.00;;;13.90
19644;BMP180;9970;-36.854;174.870;2023-08-30T04:22:50;102071.00;;;13.90
19644;BMP180;9970;-36.854;174.870;2023-08-30T04:25:22;102067.00;;;13.90
19644;BMP180;9970;-36.854;174.870;2023-08-30T04:27:56;102066.00;;;13.90
19644;BMP180;9970;-36.854;174.870;2023-08-30T04:30:29;102065.00;;;13.90
19644;BMP180;9970;-36.854;174.870;2023-08-30T04:33:02;102064.00;;;13.90
19644;BMP180;9970;-36.854;174.870;2023-08-30T04:35:35;102061.00;;;14.00
19644;BMP180;9970;-36.854;174.870;2023-08-30T04:38:10;102060.00;;;13.90
19644;BMP180;9970;-36.854;174.870;2023-08-30T04:40:48;102058.00;;;13.90
19644;BMP180;9970;-36.854;174.870;2023-08-30T04:43:22;102066.00;;;13.90
19644;BMP180;9970;-36.854;174.870;2023-08-30T04:45:58;102057.00;;;13.90
19644;BMP180;9970;-36.854;174.870;2023-08-30T04:48:31;102050.00;;;13.80
19644;BMP180;9970;-36.854;174.870;2023-08-30T04:51:05;102053.00;;;13.80
19644;BMP180;9970;-36.854;174.870;2023-08-30T04:53:41;102044.00;;;13.70
19644;BMP180;9970;-36.854;174.870;2023-08-30T04:56:16;102040.00;;;13.70
19644;BMP180;9970;-36.854;174.870;2023-08-30T04:58:50;102040.00;;;13.70
19644;BMP180;9970;-36.854;174.870;2023-08-30T05:01:23;102054.00;;;13.70
19644;BMP180;9970;-36.854;174.870;2023-08-30T05:03:55;102051.00;;;13.70
19644;BMP180;9970;-36.854;174.870;2023-08-30T05:06:28;102063.00;;;13.70
19644;BMP180;9970;-36.854;174.870;2023-08-30T05:09:02;102064.00;;;13.70
19644;BMP180;9970;-36.854;174.870;2023-08-30T05:11:35;102054.00;;;13.70
19644;BMP180;9970;-36.854;174.870;2023-08-30T05:14:10;102071.00;;;13.70
19644;BMP180;9970;-36.854;174.870;2023-08-30T05:16:44;102078.00;;;13.70
19644;BMP180;9970;-36.854;174.870;2023-08-30T05:19:18;102075.00;;;13.70
19644;BMP180;9970;-36.854;174.870;2023-08-30T05:21:51;102077.00;;;13.60
19644;BMP180;9970;-36.854;174.870;2023-08-30T05:24:25;102071.00;;;13.60
19644;BMP180;9970;-36.854;174.870;2023-08-30T05:26:59;102082.00;;;13.60
19644;BMP180;9970;-36.854;174.870;2023-08-30T05:29:32;102084.00;;;13.60
19644;BMP180;9970;-36.854;174.870;2023-08-30T05:32:05;102078.00;;;13.60
19644;BMP180;9970;-36.854;174.870;2023-08-30T05:34:38;102087.00;;;13.60
19644;BMP180;9970;-36.854;174.870;2023-08-30T05:37:11;102091.00;;;13.50
19644;BMP180;9970;-36.854;174.870;2023-08-30T05:39:44;102082.00;;;13.50
19644;BMP180;9970;-36.854;174.870;2023-08-30T05:42:17;102081.00;;;13.50
19644;BMP180;9970;-36.854;174.870;2023-08-30T05:44:50;102084.00;;;13.50
19644;BMP180;9970;-36.854;174.870;2023-08-30T05:47:23;102084.00;;;13.50
19644;BMP180;9970;-36.854;174.870;2023-08-30T05:49:56;102079.00;;;13.50
19644;BMP180;9970;-36.854;174.870;2023-08-30T05:52:29;102085.00;;;13.50
19644;BMP180;9970;-36.854;174.870;2023-08-30T05:55:02;102075.00;;;13.50
19644;BMP180;9970;-36.854;174.870;2023-08-30T05:57:36;102086.00;;;13.50
19644;BMP180;9970;-36.854;174.870;2023-08-30T06:00:09;102087.00;;;13.40
19644;BMP180;9970;-36.854;174.870;2023-08-30T06:02:43;102087.00;;;13.40
19644;BMP180;9970;-36.854;174.870;2023-08-30T06:05:17;102087.00;;;13.40
19644;BMP180;9970;-36.854;174.870;2023-08-30T06:07:50;102096.00;;;13.40
19644;BMP180;9970;-36.854;174.870;2023-08-30T06:10:23;102098.00;;;13.40
19644;BMP180;9970;-36.854;174.870;2023-08-30T06:12:56;102090.00;;;13.40
19644;BMP180;9970;-36.854;174.870;2023-08-30T06:15:28;102090.00;;;13.30
19644;BMP180;9970;-36.854;174.870;2023-08-30T06:18:01;102081.00;;;13.40
19644;BMP180;9970;-36.854;174.870;2023-08-30T06:20:40;102090.00;;;13.40
19644;BMP180;9970;-36.854;174.870;2023-08-30T06:23:13;102091.00;;;13.40
19644;BMP180;9970;-36.854;174.870;2023-08-30T06:25:53;102091.00;;;13.30
19644;BMP180;9970;-36.854;174.870;2023-08-30T06:28:20;102097.00;;;13.30
19644;BMP180;9970;-36.854;174.870;2023-08-30T06:30:54;102099.00;;;13.30
19644;BMP180;9970;-36.854;174.870;2023-08-30T06:33:32;102100.00;;;13.30
19644;BMP180;9970;-36.854;174.870;2023-08-30T06:36:05;102091.00;;;13.30
19644;BMP180;9970;-36.854;174.870;2023-08-30T06:38:38;102085.00;;;13.30
19644;BMP180;9970;-36.854;174.870;2023-08-30T06:41:11;102093.00;;;13.30
19644;BMP180;9970;-36.854;174.870;2023-08-30T06:43:44;102092.00;;;13.30
19644;BMP180;9970;-36.854;174.870;2023-08-30T06:46:17;102102.00;;;13.30
19644;BMP180;9970;-36.854;174.870;2023-08-30T06:48:57;102101.00;;;13.30
19644;BMP180;9970;-36.854;174.870;2023-08-30T06:51:28;102107.00;;;13.20
19644;BMP180;9970;-36.854;174.870;2023-08-30T06:54:01;102116.00;;;13.30
19644;BMP180;9970;-36.854;174.870;2023-08-30T06:56:33;102107.00;;;13.20
19644;BMP180;9970;-36.854;174.870;2023-08-30T06:59:06;102108.00;;;13.20
19644;BMP180;9970;-36.854;174.870;2023-08-30T07:01:39;102095.00;;;13.20
19644;BMP180;9970;-36.854;174.870;2023-08-30T07:04:12;102098.00;;;13.20
19644;BMP180;9970;-36.854;174.870;2023-08-30T07:06:45;102094.00;;;13.20
19644;BMP180;9970;-36.854;174.870;2023-08-30T07:09:18;102096.00;;;13.20
19644;BMP180;9970;-36.854;174.870;2023-08-30T07:11:51;102092.00;;;13.20
19644;BMP180;9970;-36.854;174.870;2023-08-30T07:14:24;102096.00;;;13.20
19644;BMP180;9970;-36.854;174.870;2023-08-30T07:16:57;102097.00;;;13.20
19644;BMP180;9970;-36.854;174.870;2023-08-30T07:19:33;102102.00;;;13.20
19644;BMP180;9970;-36.854;174.870;2023-08-30T07:22:06;102098.00;;;13.20
19644;BMP180;9970;-36.854;174.870;2023-08-30T07:24:39;102107.00;;;13.20
19644;BMP180;9970;-36.854;174.870;2023-08-30T07:27:12;102104.00;;;13.20
19644;BMP180;9970;-36.854;174.870;2023-08-30T07:29:49;102103.00;;;13.20
19644;BMP180;9970;-36.854;174.870;2023-08-30T07:32:23;102110.00;;;13.20
19644;BMP180;9970;-36.854;174.870;2023-08-30T07:34:56;102114.00;;;13.10
19644;BMP180;9970;-36.854;174.870;2023-08-30T07:37:29;102115.00;;;13.10
19644;BMP180;9970;-36.854;174.870;2023-08-30T07:40:02;102126.00;;;13.10
19644;BMP180;9970;-36.854;174.870;2023-08-30T07:42:35;102109.00;;;13.10
19644;BMP180;9970;-36.854;174.870;2023-08-30T07:45:09;102114.00;;;13.10
19644;BMP180;9970;-36.854;174.870;2023-08-30T07:47:42;102119.00;;;13.20
19644;BMP180;9970;-36.854;174.870;2023-08-30T07:50:15;102130.00;;;13.20
19644;BMP180;9970;-36.854;174.870;2023-08-30T07:52:48;102127.00;;;13.20
19644;BMP180;9970;-36.854;174.870;2023-08-30T07:55:21;102125.00;;;13.20
19644;BMP180;9970;-36.854;174.870;2023-08-30T07:57:54;102126.00;;;13.20
19644;BMP180;9970;-36.854;174.870;2023-08-30T08:00:27;102131.00;;;13.10
19644;BMP180;9970;-36.854;174.870;2023-08-30T08:03:00;102127.00;;;13.10
19644;BMP180;9970;-36.854;174.870;2023-08-30T08:05:33;102133.00;;;13.10
19644;BMP180;9970;-36.854;174.870;2023-08-30T08:08:07;102137.00;;;13.10
19644;BMP180;9970;-36.854;174.870;2023-08-30T08:10:43;102135.00;;;13.10
19644;BMP180;9970;-36.854;174.870;2023-08-30T08:13:15;102130.00;;;13.10
19644;BMP180;9970;-36.854;174.870;2023-08-30T08:15:49;102136.00;;;13.10
19644;BMP180;9970;-36.854;174.870;2023-08-30T08:18:24;102134.00;;;13.10
19644;BMP180;9970;-36.854;174.870;2023-08-30T08:20:58;102143.00;;;13.10
19644;BMP180;9970;-36.854;174.870;2023-08-30T08:23:31;102145.00;;;13.10
19644;BMP180;9970;-36.854;174.870;2023-08-30T08:26:04;102142.00;;;13.10
19644;BMP180;9970;-36.854;174.870;2023-08-30T08:28:38;102141.00;;;13.10
19644;BMP180;9970;-36.854;174.870;2023-08-30T08:31:11;102137.00;;;13.10
19644;BMP180;9970;-36.854;174.870;2023-08-30T08:33:45;102138.00;;;13.10
19644;BMP180;9970;-36.854;174.870;2023-08-30T08:36:17;102140.00;;;13.10
19644;BMP180;9970;-36.854;174.870;2023-08-30T08:38:50;102143.00;;;13.00
19644;BMP180;9970;-36.854;174.870;2023-08-30T08:41:24;102142.00;;;13.00
19644;BMP180;9970;-36.854;174.870;2023-08-30T08:43:59;102139.00;;;13.00
19644;BMP180;9970;-36.854;174.870;2023-08-30T08:46:33;102145.00;;;13.00
19644;BMP180;9970;-36.854;174.870;2023-08-30T08:49:14;102152.00;;;13.00
19644;BMP180;9970;-36.854;174.870;2023-08-30T08:51:48;102155.00;;;13.00
19644;BMP180;9970;-36.854;174.870;2023-08-30T08:54:21;102147.00;;;13.00
19644;BMP180;9970;-36.854;174.870;2023-08-30T08:56:54;102141.00;;;13.00
19644;BMP180;9970;-36.854;174.870;2023-08-30T08:59:27;102141.00;;;13.00
19644;BMP180;9970;-36.854;174.870;2023-08-30T09:02:01;102144.00;;;13.00
19644;BMP180;9970;-36.854;174.870;2023-08-30T09:04:34;102150.00;;;13.00
19644;BMP180;9970;-36.854;174.870;2023-08-30T09:07:07;102157.00;;;12.90
19644;BMP180;9970;-36.854;174.870;2023-08-30T09:09:40;102161.00;;;12.90
19644;BMP180;9970;-36.854;174.870;2023-08-30T09:12:13;102163.00;;;12.90
19644;BMP180;9970;-36.854;174.870;2023-08-30T09:14:56;102160.00;;;12.90
19644;BMP180;9970;-36.854;174.870;2023-08-30T09:17:41;102159.00;;;12.90
19644;BMP180;9970;-36.854;174.870;2023-08-30T09:20:14;102167.00;;;12.90
19644;BMP180;9970;-36.854;174.870;2023-08-30T09:22:49;102167.00;;;12.90
19644;BMP180;9970;-36.854;174.870;2023-08-30T09:25:26;102172.00;;;12.80
19644;BMP180;9970;-36.854;174.870;2023-08-30T09:27:59;102166.00;;;12.80
19644;BMP180;9970;-36.854;174.870;2023-08-30T09:30:32;102181.00;;;12.70
19644;BMP180;9970;-36.854;174.870;2023-08-30T09:33:06;102176.00;;;12.70
19644;BMP180;9970;-36.854;174.870;2023-08-30T09:35:43;102180.00;;;12.70
19644;BMP180;9970;-36.854;174.870;2023-08-30T09:38:20;102183.00;;;12.60
19644;BMP180;9970;-36.854;174.870;2023-08-30T09:41:03;102181.00;;;12.60
19644;BMP180;9970;-36.854;174.870;2023-08-30T09:43:27;102179.00;;;12.50
19644;BMP180;9970;-36.854;174.870;2023-08-30T09:46:03;102175.00;;;12.50
19644;BMP180;9970;-36.854;174.870;2023-08-30T09:48:37;102176.00;;;12.50
19644;BMP180;9970;-36.854;174.870;2023-08-30T09:51:12;102173.00;;;12.50
19644;BMP180;9970;-36.854;174.870;2023-08-30T09:53:46;102178.00;;;12.40
19644;BMP180;9970;-36.854;174.870;2023-08-30T09:56:21;102190.00;;;12.40
19644;BMP180;9970;-36.854;174.870;2023-08-30T09:58:55;102190.00;;;12.40
19644;BMP180;9970;-36.854;174.870;2023-08-30T10:01:30;102191.00;;;12.40
19644;BMP180;9970;-36.854;174.870;2023-08-30T10:04:03;102190.00;;;12.40
19644;BMP180;9970;-36.854;174.870;2023-08-30T10:06:38;102194.00;;;12.40
19644;BMP180;9970;-36.854;174.870;2023-08-30T10:09:15;102201.00;;;12.40
19644;BMP180;9970;-36.854;174.870;2023-08-30T10:11:51;102208.00;;;12.30
19644;BMP180;9970;-36.854;174.870;2023-08-30T10:14:24;102215.00;;;12.30
19644;BMP180;9970;-36.854;174.870;2023-08-30T10:17:01;102204.00;;;12.20
19644;BMP180;9970;-36.854;174.870;2023-08-30T10:19:35;102213.00;;;12.20
19644;BMP180;9970;-36.854;174.870;2023-08-30T10:22:09;102207.00;;;12.20
19644;BMP180;9970;-36.854;174.870;2023-08-30T10:24:45;102205.00;;;12.10
19644;BMP180;9970;-36.854;174.870;2023-08-30T10:27:20;102203.00;;;12.10
19644;BMP180;9970;-36.854;174.870;2023-08-30T10:29:54;102209.00;;;12.10
19644;BMP180;9970;-36.854;174.870;2023-08-30T10:32:27;102211.00;;;12.10
19644;BMP180;9970;-36.854;174.870;2023-08-30T10:35:03;102218.00;;;12.00
19644;BMP180;9970;-36.854;174.870;2023-08-30T10:37:36;102214.00;;;12.00
19644;BMP180;9970;-36.854;174.870;2023-08-30T10:40:09;102217.00;;;12.10
19644;BMP180;9970;-36.854;174.870;2023-08-30T10:42:42;102213.00;;;12.10
19644;BMP180;9970;-36.854;174.870;2023-08-30T10:45:22;102212.00;;;12.10
19644;BMP180;9970;-36.854;174.870;2023-08-30T10:47:54;102205.00;;;12.10
19644;BMP180;9970;-36.854;174.870;2023-08-30T10:50:34;102205.00;;;12.00
19644;BMP180;9970;-36.854;174.870;2023-08-30T10:53:12;102201.00;;;12.00
19644;BMP180;9970;-36.854;174.870;2023-08-30T10:56:33;102191.00;;;12.00
19644;BMP180;9970;-36.854;174.870;2023-08-30T10:58:21;102194.00;;;11.90
19644;BMP180;9970;-36.854;174.870;2023-08-30T11:00:54;102192.00;;;11.90
19644;BMP180;9970;-36.854;174.870;2023-08-30T11:03:28;102187.00;;;11.90
19644;BMP180;9970;-36.854;174.870;2023-08-30T11:06:01;102192.00;;;11.90
19644;BMP180;9970;-36.854;174.870;2023-08-30T11:08:35;102185.00;;;11.90
19644;BMP180;9970;-36.854;174.870;2023-08-30T11:11:12;102197.00;;;11.90
19644;BMP180;9970;-36.854;174.870;2023-08-30T11:13:46;102192.00;;;11.80
19644;BMP180;9970;-36.854;174.870;2023-08-30T11:16:22;102194.00;;;11.80
19644;BMP180;9970;-36.854;174.870;2023-08-30T11:18:55;102196.00;;;11.80
19644;BMP180;9970;-36.854;174.870;2023-08-30T11:21:28;102191.00;;;11.80
19644;BMP180;9970;-36.854;174.870;2023-08-30T11:24:01;102196.00;;;11.80
19644;BMP180;9970;-36.854;174.870;2023-08-30T11:26:36;102199.00;;;11.80
19644;BMP180;9970;-36.854;174.870;2023-08-30T11:29:09;102197.00;;;11.80
19644;BMP180;9970;-36.854;174.870;2023-08-30T11:31:42;102199.00;;;11.80
19644;BMP180;9970;-36.854;174.870;2023-08-30T11:34:19;102198.00;;;11.90
19644;BMP180;9970;-36.854;174.870;2023-08-30T11:36:51;102195.00;;;11.80
19644;BMP180;9970;-36.854;174.870;2023-08-30T11:39:26;102199.00;;;11.80
19644;BMP180;9970;-36.854;174.870;2023-08-30T11:41:58;102199.00;;;11.80
19644;BMP180;9970;-36.854;174.870;2023-08-30T11:44:33;102201.00;;;11.80
19644;BMP180;9970;-36.854;174.870;2023-08-30T11:47:06;102191.00;;;11.70
19644;BMP180;9970;-36.854;174.870;2023-08-30T11:49:39;102184.00;;;11.70
19644;BMP180;9970;-36.854;174.870;2023-08-30T11:52:12;102190.00;;;11.70
19644;BMP180;9970;-36.854;174.870;2023-08-30T11:54:49;102181.00;;;11.70
19644;BMP180;9970;-36.854;174.870;2023-08-30T11:57:22;102189.00;;;11.70
19644;BMP180;9970;-36.854;174.870;2023-08-30T12:00:06;102180.00;;;11.60
19644;BMP180;9970;-36.854;174.870;2023-08-30T12:02:31;102187.00;;;11.70
19644;BMP180;9970;-36.854;174.870;2023-08-30T12:05:04;102186.00;;;11.70
19644;BMP180;9970;-36.854;174.870;2023-08-30T12:07:38;102183.00;;;11.70
19644;BMP180;9970;-36.854;174.870;2023-08-30T12:10:14;102182.00;;;11.70
19644;BMP180;9970;-36.854;174.870;2023-08-30T12:12:48;102181.00;;;11.70
19644;BMP180;9970;-36.854;174.870;2023-08-30T12:15:22;102175.00;;;11.60
19644;BMP180;9970;-36.854;174.870;2023-08-30T12:17:57;102175.00;;;11.60
19644;BMP180;9970;-36.854;174.870;2023-08-30T12:20:31;102190.00;;;11.60
19644;BMP180;9970;-36.854;174.870;2023-08-30T12:23:04;102188.00;;;11.50
19644;BMP180;9970;-36.854;174.870;2023-08-30T12:25:37;102185.00;;;11.50
19644;BMP180;9970;-36.854;174.870;2023-08-30T12:28:10;102181.00;;;11.50
19644;BMP180;9970;-36.854;174.870;2023-08-30T12:30:43;102177.00;;;11.50
19644;BMP180;9970;-36.854;174.870;2023-08-30T12:33:16;102185.00;;;11.50
19644;BMP180;9970;-36.854;174.870;2023-08-30T12:35:49;102168.00;;;11.40
19644;BMP180;9970;-36.854;174.870;2023-08-30T12:38:22;102163.00;;;11.40
19644;BMP180;9970;-36.854;174.870;2023-08-30T12:40:55;102183.00;;;11.40
19644;BMP180;9970;-36.854;174.870;2023-08-30T12:43:29;102181.00;;;11.30
19644;BMP180;9970;-36.854;174.870;2023-08-30T12:46:02;102173.00;;;11.30
19644;BMP180;9970;-36.854;174.870;2023-08-30T12:48:35;102171.00;;;11.30
19644;BMP180;9970;-36.854;174.870;2023-08-30T12:51:08;102177.00;;;11.30
19644;BMP180;9970;-36.854;174.870;2023-08-30T12:53:42;102165.00;;;11.30
19644;BMP180;9970;-36.854;174.870;2023-08-30T12:56:15;102169.00;;;11.30
19644;BMP180;9970;-36.854;174.870;2023-08-30T12:58:47;102175.00;;;11.20
19644;BMP180;9970;-36.854;174.870;2023-08-30T13:01:21;102167.00;;;11.20
19644;BMP180;9970;-36.854;174.870;2023-08-30T13:03:55;102166.00;;;11.20
19644;BMP180;9970;-36.854;174.870;2023-08-30T13:06:28;102164.00;;;11.20
19644;BMP180;9970;-36.854;174.870;2023-08-30T13:09:02;102174.00;;;11.20
19644;BMP180;9970;-36.854;174.870;2023-08-30T13:11:35;102176.00;;;11.20
19644;BMP180;9970;-36.854;174.870;2023-08-30T13:14:08;102183.00;;;11.20
19644;BMP180;9970;-36.854;174.870;2023-08-30T13:16:41;102179.00;;;11.10
19644;BMP180;9970;-36.854;174.870;2023-08-30T13:19:14;102185.00;;;11.10
19644;BMP180;9970;-36.854;174.870;2023-08-30T13:21:47;102177.00;;;11.10
19644;BMP180;9970;-36.854;174.870;2023-08-30T13:24:20;102181.00;;;11.10
19644;BMP180;9970;-36.854;174.870;2023-08-30T13:26:57;102186.00;;;11.10
19644;BMP180;9970;-36.854;174.870;2023-08-30T13:29:30;102172.00;;;11.00
19644;BMP180;9970;-36.854;174.870;2023-08-30T13:32:03;102178.00;;;11.00
19644;BMP180;9970;-36.854;174.870;2023-08-30T13:34:36;102177.00;;;11.00
19644;BMP180;9970;-36.854;174.870;2023-08-30T13:37:09;102171.00;;;11.00
19644;BMP180;9970;-36.854;174.870;2023-08-30T13:39:42;102178.00;;;11.00
19644;BMP180;9970;-36.854;174.870;2023-08-30T13:42:15;102170.00;;;11.00
19644;BMP180;9970;-36.854;174.870;2023-08-30T13:44:50;102184.00;;;11.00
19644;BMP180;9970;-36.854;174.870;2023-08-30T13:47:22;102176.00;;;10.90
19644;BMP180;9970;-36.854;174.870;2023-08-30T13:49:55;102168.00;;;10.90
19644;BMP180;9970;-36.854;174.870;2023-08-30T13:52:29;102177.00;;;10.90
19644;BMP180;9970;-36.854;174.870;2023-08-30T13:55:02;102171.00;;;10.90
19644;BMP180;9970;-36.854;174.870;2023-08-30T13:57:35;102172.00;;;10.90
19644;BMP180;9970;-36.854;174.870;2023-08-30T14:00:14;102170.00;;;10.90
19644;BMP180;9970;-36.854;174.870;2023-08-30T14:02:47;102171.00;;;10.90
19644;BMP180;9970;-36.854;174.870;2023-08-30T14:05:19;102174.00;;;10.90
19644;BMP180;9970;-36.854;174.870;2023-08-30T14:07:53;102176.00;;;10.90